King Gregory — SVBP8 — position and weather

sailwx.info

Track history (hours):
 
Tides and Currents Weather Stations Pressure Air Temp Water Temp Dewpoint Dewpoint Depression Visibility Wind Speed Wind Dir Waves Ship Positions

King Gregory

Last reported at 2017-Dec-11 08:17 UTC. Time now 2017-Dec-16 01:41 UTC.
Position N 01°18' E 103°20'.

Length 183 m; draft 7 m.

Type: Ship (hazmat cat B). MMSI: 241220000.

Date/timePositionNaut miles runAvg speedWind from/ knotsBaromVisibWave heightAir tempDewpointWater temp
2017-Dec-11 08:17N 01°18' E 103°20'312.5
2017-Dec-11 08:00N 01°16' E 103°23'713.9
2017-Dec-11 07:30N 01°13' E 103°29'714.5
2017-Dec-11 07:00N 01°12' E 103°36'714.1
2017-Dec-11 06:30N 01°09' E 103°43'611.1
2017-Dec-11 06:00N 01°11' E 103°48'612.3
2017-Dec-11 05:30N 01°13' E 103°54'612.9
2017-Dec-11 05:00N 01°15' E 103°60'1014.4
2017-Dec-11 04:20N 01°16' E 104°09'  
Track history (hours):
 
Tides and Currents Weather Stations Pressure Air Temp Water Temp Dewpoint Dewpoint Depression Visibility Wind Speed Wind Dir Waves Ship Positions

King Gregory

Last reported at 2017-Dec-11 08:17 UTC. Time now 2017-Dec-16 01:41 UTC.
Position N 01°18' E 103°20'.

Length 183 m; draft 7 m.

Type: Ship (hazmat cat B). MMSI: 241220000.

Date/timePositionNaut miles runAvg speedWind from/ knotsBaromVisibWave heightAir tempDewpointWater temp
2017-Dec-11 08:17N 01°18' E 103°20'312.5
2017-Dec-11 08:00N 01°16' E 103°23'713.9
2017-Dec-11 07:30N 01°13' E 103°29'714.5
2017-Dec-11 07:00N 01°12' E 103°36'714.1
2017-Dec-11 06:30N 01°09' E 103°43'611.1
2017-Dec-11 06:00N 01°11' E 103°48'612.3
2017-Dec-11 05:30N 01°13' E 103°54'612.9
2017-Dec-11 05:00N 01°15' E 103°60'1014.4
2017-Dec-11 04:20N 01°16' E 104°09'  

Dump ship's entire track history